Hub


Voltar

 INFORMAÇÕES METEOROLÓGICAS

METAR FOR GCXO


ADDS - METARS form results

(2346 UTC 19 August 2019)
Data provider http://aviationweather.gov/metar/data/
 
METAR text: GCXO 192330Z AUTO 26013KT 9999 NCD 20/15 Q1021
Conditions at: GCXO (TENERIFE/LOS ROD, ES) observed 2330 UTC 19 August 2019
Temperature: 20.0°C (68°F)
Dewpoint: 15.0°C (59°F) [RH = 73%]
Pressure (altimeter): 30.15 inches Hg (1021.0 mb)
Winds: from the W (260 degrees) at 15 MPH (13 knots; 6.7 m/s)
Visibility: 6 or more miles (10+ km)
Ceiling: at least 12,000 feet AGL
Clouds: sky clear below 12,000 feet AGL
Weather: no significant weather observed at this time

METAR text: GCXO 192300Z AUTO 28010KT 250V310 9999 FEW001 18/16 Q1021
Conditions at: GCXO (TENERIFE/LOS ROD, ES) observed 2300 UTC 19 August 2019
Temperature: 18.0°C (64°F)
Dewpoint: 16.0°C (61°F) [RH = 88%]
Pressure (altimeter): 30.15 inches Hg (1021.0 mb)
Winds: from the W (280 degrees) at 12 MPH (10 knots; 5.1 m/s)
Visibility: 6 or more miles (10+ km)
Ceiling: at least 12,000 feet AGL
Clouds: few clouds at 100 feet AGL
Weather: no significant weather observed at this time

Forecast for: GCXO (TENERIFE/LOS ROD, ES)
Text: TAF GCXO 192000Z 1921/2021 28010KT CAVOK TX31/2011Z TN19/2021Z
Forecast period: 2100 UTC 19 August 2019 to 2100 UTC 20 August 2019
Forecast type: FROM: standard forecast or significant change
Winds: from the W (280 degrees) at 12 MPH (10 knots; 5.1 m/s)
Visibility: 6 or more miles 10+ km)
Ceiling: unknown
Clouds: missing
Weather: no significant weather forecast for this period


 MAPA DO AEROPORTO


 INFORMAÇÕES DA PISTA

Pista 12 Tamanho da pista 11155 ft Largura da pista 148 ft
Elevação da pista 2060 ft Ranhura da pista 0 ft Proa da pista 111
Pista 30 Tamanho da pista 11155 ft Largura da pista 148 ft
Elevação da pista 2002 ft Ranhura da pista 0 ft Proa da pista 291

 FREQUÊNCIAS DO AEROPORTO

Tipo APP Nome APP Frequência 119.7 MHZ
Tipo ATIS Nome ATIS Frequência 118.575 MHZ
Tipo GND Nome GND Frequência 121.7 MHZ
Tipo TWR Nome TWR Frequência 118.7 MHZ

 AUXÍLIOS DE NAVEGAÇÃO PRÓXIMOS AO AEROPORTO

Tipo VOR-DME Nome Tenerife Norte Frequência 117700 KHZ
Tipo NDB Nome Tenerife Norte Frequência 410 KHZ